createdAt,value
2019-03-10T00:00:41.455Z,97349.37
2019-03-10T00:03:08.927Z,97344.59
2019-03-10T00:05:35.881Z,97348.92
2019-03-10T00:08:02.667Z,97365.70
2019-03-10T00:10:42.130Z,97363.27
2019-03-10T00:13:08.851Z,97345.78
2019-03-10T00:15:35.844Z,97348.90
2019-03-10T00:18:02.832Z,97361.30
2019-03-10T00:20:36.123Z,97365.93
2019-03-10T00:23:02.734Z,97358.77
2019-03-10T00:25:30.954Z,97357.08
2019-03-10T00:27:57.600Z,97365.78
2019-03-10T00:30:24.309Z,97354.87
2019-03-10T00:32:51.779Z,97368.74
2019-03-10T00:35:18.410Z,97367.70
2019-03-10T00:37:45.039Z,97378.35
2019-03-10T00:40:12.023Z,97369.06
2019-03-10T00:42:42.423Z,97375.55
2019-03-10T00:45:09.026Z,97358.25
2019-03-10T00:47:35.983Z,97368.77
2019-03-10T00:50:03.021Z,97367.38
2019-03-10T00:52:31.321Z,97374.01
2019-03-10T00:54:58.031Z,97363.87
2019-03-10T00:57:25.362Z,97370.09
2019-03-10T00:59:52.031Z,97373.20
2019-03-10T01:02:18.778Z,97368.41
2019-03-10T01:04:45.919Z,97362.48
2019-03-10T01:07:13.204Z,97344.91
2019-03-10T01:09:41.439Z,97361.84
2019-03-10T01:20:30.641Z,97341.13
2019-03-10T01:22:57.522Z,97341.09
2019-03-10T01:25:24.473Z,97344.09
2019-03-10T01:27:51.111Z,97346.63
2019-03-10T01:30:18.028Z,97343.78
2019-03-10T01:32:44.875Z,97368.70
2019-03-10T01:35:11.771Z,97342.66
2019-03-10T01:37:38.476Z,97345.70
2019-03-10T01:40:05.456Z,97358.99
2019-03-10T01:42:32.450Z,97351.76
2019-03-10T01:45:00.842Z,97361.64
2019-03-10T01:47:27.479Z,97355.31
2019-03-10T01:49:54.091Z,97359.71
2019-03-10T01:52:20.896Z,97360.30
2019-03-10T01:54:47.821Z,97353.78
2019-03-10T01:57:14.851Z,97345.25
2019-03-10T01:59:41.788Z,97355.16
2019-03-10T02:02:08.671Z,97352.91
2019-03-10T02:04:35.287Z,97346.67
2019-03-10T02:07:02.483Z,97353.95
2019-03-10T02:09:29.383Z,97352.23
2019-03-10T02:11:55.970Z,97363.48
2019-03-10T02:14:22.782Z,97361.18
2019-03-10T02:16:49.443Z,97372.95
2019-03-10T02:19:16.012Z,97379.00
2019-03-10T02:21:43.165Z,97379.78
2019-03-10T02:24:10.109Z,97382.67
2019-03-10T02:26:36.708Z,97395.80
2019-03-10T02:29:03.705Z,97369.64
2019-03-10T02:31:31.245Z,97374.38
2019-03-10T02:33:57.837Z,97380.39
2019-03-10T02:36:26.087Z,97378.28
2019-03-10T02:38:52.751Z,97373.45
2019-03-10T02:41:22.238Z,97362.17
2019-03-10T02:43:49.071Z,97373.51
2019-03-10T02:46:15.947Z,97374.98
2019-03-10T02:48:42.827Z,97388.01
2019-03-10T02:51:09.613Z,97380.38
2019-03-10T02:53:36.399Z,97397.06
2019-03-10T02:56:03.359Z,97390.73
2019-03-10T02:58:30.350Z,97388.06
2019-03-10T03:00:57.152Z,97385.95
2019-03-10T03:03:23.768Z,97389.97
2019-03-10T03:05:50.778Z,97395.94
2019-03-10T03:08:17.782Z,97383.09
2019-03-10T03:10:44.449Z,97387.05
2019-03-10T03:13:11.052Z,97397.27
2019-03-10T03:15:37.763Z,97398.63
2019-03-10T03:18:04.482Z,97395.69
2019-03-10T03:20:31.402Z,97390.96
2019-03-10T03:22:58.326Z,97387.84
2019-03-10T03:25:24.947Z,97396.78
2019-03-10T03:27:51.906Z,97401.50
2019-03-10T03:30:18.593Z,97397.64
2019-03-10T03:32:45.301Z,97396.66
2019-03-10T03:35:12.160Z,97405.16
2019-03-10T03:37:38.921Z,97396.03
2019-03-10T03:40:05.936Z,97390.46
2019-03-10T03:42:33.325Z,97389.36
2019-03-10T03:45:00.933Z,97390.69
2019-03-10T03:47:27.697Z,97392.29
2019-03-10T03:49:54.353Z,97395.75
2019-03-10T03:52:21.636Z,97384.28
2019-03-10T03:54:48.256Z,97393.95
2019-03-10T03:57:15.154Z,97378.07
2019-03-10T03:59:42.001Z,97371.87
2019-03-10T04:02:11.242Z,97363.37
2019-03-10T04:04:37.883Z,97363.05
2019-03-10T04:07:04.876Z,97376.44
2019-03-10T04:09:31.861Z,97375.80
2019-03-10T04:12:00.694Z,97379.87
2019-03-10T04:14:27.773Z,97369.09
2019-03-10T04:16:54.630Z,97369.59
2019-03-10T04:19:21.334Z,97373.47
2019-03-10T04:21:48.046Z,97375.73
2019-03-10T04:24:14.923Z,97373.73
2019-03-10T04:26:41.724Z,97374.44
2019-03-10T04:29:08.400Z,97375.95
2019-03-10T04:34:31.857Z,97390.52
2019-03-10T04:36:58.681Z,97403.90
2019-03-10T04:39:26.687Z,97385.77
2019-03-10T04:41:53.454Z,97394.09
2019-03-10T04:44:21.415Z,97395.56
2019-03-10T04:46:49.155Z,97395.06
2019-03-10T04:49:18.406Z,97399.01
2019-03-10T04:51:45.008Z,97403.89
2019-03-10T04:54:11.657Z,97396.70
2019-03-10T04:56:38.932Z,97394.11
2019-03-10T04:59:06.525Z,97391.48
2019-03-10T05:01:36.835Z,97389.67
2019-03-10T05:04:04.247Z,97389.53
2019-03-10T05:06:30.830Z,97378.59
2019-03-10T05:09:01.289Z,97379.52
2019-03-10T05:11:38.917Z,97379.98
2019-03-10T05:14:05.727Z,97386.22
2019-03-10T05:16:35.133Z,97388.18
2019-03-10T05:21:34.786Z,97375.59
2019-03-10T05:24:02.402Z,97371.34
2019-03-10T05:26:29.025Z,97369.39
2019-03-10T05:31:57.411Z,97365.64
2019-03-10T05:34:25.018Z,97355.69
2019-03-10T05:36:53.945Z,97354.70
2019-03-10T05:39:21.844Z,97353.38
2019-03-10T05:41:49.636Z,97353.53
2019-03-10T05:44:17.647Z,97352.08
2019-03-10T05:46:44.876Z,97352.75
2019-03-10T05:49:13.623Z,97348.00
2019-03-10T05:51:44.722Z,97345.09
2019-03-10T05:54:12.459Z,97350.31
2019-03-10T05:56:40.146Z,97353.91
2019-03-10T05:59:14.985Z,97342.63
2019-03-10T06:01:36.817Z,97341.66
2019-03-10T06:04:03.490Z,97329.56
2019-03-10T06:06:30.113Z,97333.64
2019-03-10T06:08:56.948Z,97328.25
2019-03-10T06:11:23.595Z,97330.22
2019-03-10T06:13:50.246Z,97332.59
2019-03-10T06:16:16.861Z,97319.60
2019-03-10T06:18:43.751Z,97328.02
2019-03-10T06:21:10.345Z,97322.84
2019-03-10T06:23:37.839Z,97319.09
2019-03-10T06:26:06.154Z,97308.07
2019-03-10T06:28:32.973Z,97302.52
2019-03-10T06:31:00.793Z,97303.59
2019-03-10T06:33:46.994Z,97299.90
2019-03-10T06:36:13.858Z,97300.90
2019-03-10T06:38:40.998Z,97295.91
2019-03-10T06:41:07.699Z,97302.63
2019-03-10T06:43:37.342Z,97292.33
2019-03-10T06:46:06.420Z,97277.14
2019-03-10T06:51:07.036Z,97280.86
2019-03-10T06:53:36.338Z,97275.36
2019-03-10T06:56:06.236Z,97277.56
2019-03-10T06:58:34.077Z,97282.64
2019-03-10T07:01:01.959Z,97279.77
2019-03-10T07:03:31.451Z,97275.16
2019-03-10T07:06:03.021Z,97274.38
2019-03-10T07:08:29.633Z,97270.42
2019-03-10T07:10:58.511Z,97262.83
2019-03-10T07:13:24.868Z,97258.39
2019-03-10T07:15:51.699Z,97277.82
2019-03-10T07:18:19.003Z,97279.02
2019-03-10T07:20:45.746Z,97280.26
2019-03-10T07:23:15.011Z,97290.97
2019-03-10T07:25:41.818Z,97282.56
2019-03-10T07:30:57.622Z,97286.11
2019-03-10T07:33:32.808Z,97288.34
2019-03-10T07:36:02.473Z,97278.08
2019-03-10T07:38:29.109Z,97281.86
2019-03-10T07:40:55.933Z,97279.59
2019-03-10T07:43:22.520Z,97278.31
2019-03-10T07:45:49.828Z,97273.34
2019-03-10T07:48:19.211Z,97261.98
2019-03-10T07:50:48.305Z,97259.44
2019-03-10T07:53:19.505Z,97252.29
2019-03-10T07:58:15.608Z,97247.41
2019-03-10T08:00:42.235Z,97246.90
2019-03-10T08:03:09.153Z,97241.19
2019-03-10T08:05:35.760Z,97233.15
2019-03-10T08:08:03.641Z,97232.72
2019-03-10T08:10:30.303Z,97222.39
2019-03-10T08:12:57.519Z,97220.66
2019-03-10T08:15:24.439Z,97226.13
2019-03-10T08:17:51.298Z,97225.84
2019-03-10T08:20:19.151Z,97221.59
2019-03-10T08:22:46.550Z,97208.42
2019-03-10T08:25:13.512Z,97200.61
2019-03-10T08:27:40.316Z,97177.58
2019-03-10T08:30:11.576Z,97166.10
2019-03-10T08:32:38.210Z,97149.05
2019-03-10T08:35:05.100Z,97141.46
2019-03-10T08:37:31.955Z,97146.09
2019-03-10T08:39:58.761Z,97148.89
2019-03-10T08:42:25.771Z,97146.01
2019-03-10T08:44:52.503Z,97140.32
2019-03-10T08:47:20.323Z,97134.63
2019-03-10T08:49:50.544Z,97130.56
2019-03-10T08:52:19.401Z,97120.41
2019-03-10T08:54:47.102Z,97112.98
2019-03-10T08:59:43.185Z,97103.63
2019-03-10T09:02:10.228Z,97094.44
2019-03-10T09:04:37.060Z,97093.35
2019-03-10T09:07:04.320Z,97094.42
2019-03-10T09:09:31.023Z,97089.64
2019-03-10T09:11:58.286Z,97079.77
2019-03-10T09:14:25.126Z,97070.73
2019-03-10T09:16:52.296Z,97046.30
2019-03-10T09:19:20.598Z,97050.38
2019-03-10T09:21:48.729Z,97030.82
2019-03-10T09:24:15.366Z,97026.72
2019-03-10T09:26:42.405Z,97022.55
2019-03-10T09:29:09.579Z,97028.00
2019-03-10T09:31:36.438Z,97015.17
2019-03-10T09:34:03.426Z,97003.69
2019-03-10T09:36:30.851Z,96994.98
2019-03-10T09:38:57.782Z,97005.23
2019-03-10T09:41:24.754Z,96996.28
2019-03-10T09:43:51.768Z,96989.09
2019-03-10T09:46:18.555Z,96970.99
2019-03-10T09:48:45.186Z,96964.84
2019-03-10T09:51:11.843Z,96964.02
2019-03-10T09:53:38.932Z,96947.52
2019-03-10T09:56:05.907Z,96938.48
2019-03-10T09:58:32.991Z,96945.64
2019-03-10T10:01:00.016Z,96930.98
2019-03-10T10:03:27.063Z,96932.92
2019-03-10T10:05:54.010Z,96922.77
2019-03-10T10:08:21.172Z,96922.19
2019-03-10T10:10:47.876Z,96900.69
2019-03-10T10:13:14.520Z,96898.56
2019-03-10T10:15:41.436Z,96888.44
2019-03-10T10:18:08.295Z,96886.90
2019-03-10T10:20:35.282Z,96889.64
2019-03-10T10:23:02.471Z,96890.23
2019-03-10T10:25:32.701Z,96885.80
2019-03-10T10:27:59.335Z,96873.69
2019-03-10T10:30:26.242Z,96874.80
2019-03-10T10:32:55.696Z,96870.05
2019-03-10T10:35:22.834Z,96859.01
2019-03-10T10:37:53.283Z,96860.94
2019-03-10T10:40:23.388Z,96846.73
2019-03-10T10:42:51.622Z,96841.38
2019-03-10T10:45:20.364Z,96835.17
2019-03-10T10:47:47.015Z,96832.09
2019-03-10T10:50:14.911Z,96834.46
2019-03-10T10:52:41.825Z,96833.49
2019-03-10T10:55:12.205Z,96830.27
2019-03-10T10:57:41.868Z,96823.57
2019-03-10T11:00:08.715Z,96828.86
2019-03-10T11:02:35.901Z,96827.50
2019-03-10T11:05:06.075Z,96818.41
2019-03-10T11:07:33.000Z,96817.94
2019-03-10T11:09:59.953Z,96812.44
2019-03-10T11:14:58.781Z,96813.44
2019-03-10T11:17:25.980Z,96798.66
2019-03-10T11:19:52.916Z,96795.72
2019-03-10T11:22:19.539Z,96783.10
2019-03-10T11:24:46.508Z,96774.12
2019-03-10T11:27:13.600Z,96769.70
2019-03-10T11:29:40.312Z,96765.23
2019-03-10T11:32:10.493Z,96730.72
2019-03-10T11:34:37.461Z,96716.89
2019-03-10T11:37:04.407Z,96715.80
2019-03-10T11:39:31.349Z,96696.08
2019-03-10T11:41:58.461Z,96703.80
2019-03-10T11:44:25.349Z,96709.27
2019-03-10T11:46:52.873Z,96691.19
2019-03-10T11:49:19.805Z,96688.20
2019-03-10T11:51:46.673Z,96667.91
2019-03-10T11:54:13.566Z,96668.08
2019-03-10T11:56:42.139Z,96651.92
2019-03-10T11:59:08.939Z,96642.30
2019-03-10T12:01:35.796Z,96642.81
2019-03-10T12:04:02.658Z,96644.43
2019-03-10T12:06:29.564Z,96634.67
2019-03-10T12:08:56.705Z,96632.23
2019-03-10T12:11:23.626Z,96626.53
2019-03-10T12:13:52.253Z,96618.42
2019-03-10T12:16:19.146Z,96624.36
2019-03-10T12:18:46.118Z,96626.61
2019-03-10T12:21:13.071Z,96632.39
2019-03-10T12:23:39.710Z,96631.27
2019-03-10T12:26:09.024Z,96628.13
2019-03-10T12:28:35.966Z,96617.32
2019-03-10T12:31:03.129Z,96607.17
2019-03-10T12:33:30.062Z,96606.12
2019-03-10T12:35:59.141Z,96603.30
2019-03-10T12:38:26.026Z,96587.90
2019-03-10T12:40:54.303Z,96583.80
2019-03-10T12:43:26.457Z,96579.64
2019-03-10T12:45:54.621Z,96585.63
2019-03-10T12:48:26.062Z,96572.77
2019-03-10T12:50:55.423Z,96568.86
2019-03-10T12:53:23.464Z,96566.61
2019-03-10T12:55:50.485Z,96554.22
2019-03-10T12:58:19.999Z,96559.83
2019-03-10T13:00:47.364Z,96551.83
2019-03-10T13:03:14.342Z,96569.05
2019-03-10T13:05:41.584Z,96559.48
2019-03-10T13:08:08.517Z,96560.15
2019-03-10T13:10:35.452Z,96565.53
2019-03-10T13:13:02.423Z,96565.12
2019-03-10T13:15:29.747Z,96558.84
2019-03-10T13:17:56.688Z,96564.80
2019-03-10T13:20:28.118Z,96556.59
2019-03-10T13:22:54.326Z,96553.72
2019-03-10T13:25:21.277Z,96547.56
2019-03-10T13:27:48.156Z,96549.30
2019-03-10T13:30:15.119Z,96548.63
2019-03-10T13:32:44.203Z,96536.55
2019-03-10T13:35:10.723Z,96542.47
2019-03-10T13:37:37.878Z,96542.77
2019-03-10T13:40:04.823Z,96535.27
2019-03-10T13:42:32.177Z,96537.56
2019-03-10T13:44:59.148Z,96544.09
2019-03-10T13:47:26.028Z,96536.69
2019-03-10T13:49:55.058Z,96542.20
2019-03-10T13:52:22.082Z,96538.92
2019-03-10T13:54:48.987Z,96537.53
2019-03-10T13:57:15.893Z,96536.62
2019-03-10T13:59:42.786Z,96526.47
2019-03-10T14:02:10.009Z,96524.16
2019-03-10T14:04:36.928Z,96527.45
2019-03-10T14:07:03.829Z,96524.33
2019-03-10T14:09:30.971Z,96509.69
2019-03-10T14:11:57.872Z,96496.47
2019-03-10T14:14:25.507Z,96515.74
2019-03-10T14:16:52.536Z,96519.09
2019-03-10T14:19:19.525Z,96523.87
2019-03-10T14:21:46.536Z,96530.29
2019-03-10T14:24:13.456Z,96501.19
2019-03-10T14:26:40.358Z,96503.78
2019-03-10T14:29:06.990Z,96506.46
2019-03-10T14:31:33.772Z,96498.20
2019-03-10T14:34:00.687Z,96493.91
2019-03-10T14:36:27.328Z,96491.49
2019-03-10T14:38:55.923Z,96474.91
2019-03-10T14:41:23.030Z,96479.09
2019-03-10T14:43:50.181Z,96468.77
2019-03-10T14:46:16.961Z,96463.13
2019-03-10T14:48:43.588Z,96467.37
2019-03-10T14:51:10.483Z,96469.80
2019-03-10T14:53:37.871Z,96459.84
2019-03-10T14:56:04.465Z,96460.44
2019-03-10T14:58:31.601Z,96467.85
2019-03-10T15:00:58.504Z,96465.83
2019-03-10T15:03:25.991Z,96459.02
2019-03-10T15:05:52.913Z,96451.41
2019-03-10T15:08:19.900Z,96457.23
2019-03-10T15:10:46.811Z,96444.49
2019-03-10T15:13:13.801Z,96455.00
2019-03-10T15:15:40.749Z,96453.30
2019-03-10T15:18:07.786Z,96443.55
2019-03-10T15:20:34.662Z,96447.72
2019-03-10T15:23:01.846Z,96441.64
2019-03-10T15:25:28.839Z,96444.60
2019-03-10T15:27:56.197Z,96445.47
2019-03-10T15:30:23.179Z,96455.66
2019-03-10T15:32:50.126Z,96458.48
2019-03-10T15:35:17.297Z,96464.20
2019-03-10T15:37:44.580Z,96474.44
2019-03-10T15:40:11.552Z,96469.58
2019-03-10T15:42:38.447Z,96470.41
2019-03-10T15:45:07.147Z,96468.05
2019-03-10T15:47:33.939Z,96461.69
2019-03-10T15:50:00.874Z,96467.81
2019-03-10T15:52:28.389Z,96457.69
2019-03-10T15:54:55.095Z,96453.52
2019-03-10T15:57:21.704Z,96454.73
2019-03-10T15:59:48.419Z,96458.02
2019-03-10T16:02:15.001Z,96459.34
2019-03-10T16:04:41.874Z,96457.67
2019-03-10T16:07:09.251Z,96460.89
2019-03-10T16:09:37.150Z,96463.03
2019-03-10T16:12:04.967Z,96454.24
2019-03-10T16:14:34.103Z,96458.78
2019-03-10T16:17:01.001Z,96450.73
2019-03-10T16:19:29.025Z,96452.91
2019-03-10T16:21:56.870Z,96461.44
2019-03-10T16:24:23.710Z,96457.44
2019-03-10T16:26:51.595Z,96463.30
2019-03-10T16:29:23.063Z,96461.94
2019-03-10T16:31:50.196Z,96460.62
2019-03-10T16:34:17.183Z,96447.33
2019-03-10T16:36:46.334Z,96448.66
2019-03-10T16:39:16.407Z,96441.69
2019-03-10T16:41:45.041Z,96448.63
2019-03-10T16:44:15.286Z,96462.95
2019-03-10T16:46:42.289Z,96455.20
2019-03-10T16:49:13.934Z,96459.70
2019-03-10T16:51:41.037Z,96461.02
2019-03-10T16:54:11.657Z,96459.44
2019-03-10T16:56:38.608Z,96458.44
2019-03-10T16:59:07.868Z,96462.73
2019-03-10T17:01:36.295Z,96463.64
2019-03-10T17:04:03.909Z,96466.24
2019-03-10T17:06:33.980Z,96462.25
2019-03-10T17:09:04.754Z,96482.67
2019-03-10T17:11:38.496Z,96481.25
2019-03-10T17:14:05.724Z,96488.78
2019-03-10T17:16:35.957Z,96484.51
2019-03-10T17:19:02.537Z,96488.50
2019-03-10T17:21:29.557Z,96488.83
2019-03-10T17:24:00.010Z,96496.15
2019-03-10T17:26:28.900Z,96483.42
2019-03-10T17:29:03.049Z,96497.69
2019-03-10T17:31:32.187Z,96493.62
2019-03-10T17:33:59.310Z,96490.21
2019-03-10T17:36:28.332Z,96499.27
2019-03-10T17:38:57.695Z,96500.48
2019-03-10T17:41:32.551Z,96505.72
2019-03-10T17:46:43.295Z,96489.88
2019-03-10T17:49:12.944Z,96508.67
2019-03-10T17:51:43.278Z,96508.98
2019-03-10T17:54:14.246Z,96508.06
2019-03-10T17:56:40.835Z,96502.52
2019-03-10T17:59:10.162Z,96493.28
2019-03-10T18:01:37.040Z,96492.55
2019-03-10T18:04:03.917Z,96490.23
2019-03-10T18:06:30.722Z,96491.52
2019-03-10T18:08:59.927Z,96496.00
2019-03-10T18:11:29.175Z,96489.89
2019-03-10T18:13:56.038Z,96498.34
2019-03-10T18:16:22.971Z,96495.25
2019-03-10T18:18:49.874Z,96500.19
2019-03-10T18:21:21.393Z,96492.16
2019-03-10T18:23:51.471Z,96485.52
2019-03-10T18:26:20.740Z,96493.45
2019-03-10T18:28:49.591Z,96504.17
2019-03-10T18:34:03.159Z,96523.63
2019-03-10T18:36:29.877Z,96508.72
2019-03-10T18:38:56.505Z,96501.66
2019-03-10T18:41:23.157Z,96506.12
2019-03-10T18:46:22.109Z,96502.78
2019-03-10T18:48:49.417Z,96523.39
2019-03-10T18:51:16.398Z,96522.89
2019-03-10T18:53:43.360Z,96516.30
2019-03-10T18:56:10.462Z,96518.87
2019-03-10T18:58:37.870Z,96524.39
2019-03-10T19:01:04.748Z,96536.47
2019-03-10T19:03:31.381Z,96544.40
2019-03-10T19:05:58.226Z,96548.16
2019-03-10T19:08:24.811Z,96556.48
2019-03-10T19:10:53.433Z,96556.55
2019-03-10T19:13:20.300Z,96551.47
2019-03-10T19:15:47.003Z,96555.19
2019-03-10T19:18:14.127Z,96547.45
2019-03-10T19:20:41.085Z,96539.42
2019-03-10T19:23:08.086Z,96546.06
2019-03-10T19:25:35.039Z,96554.05
2019-03-10T19:28:01.899Z,96548.95
2019-03-10T19:30:28.882Z,96551.31
2019-03-10T19:32:55.458Z,96562.21
2019-03-10T19:35:22.280Z,96559.14
2019-03-10T19:37:49.018Z,96579.14
2019-03-10T19:40:16.237Z,96581.16
2019-03-10T19:42:43.334Z,96577.30
2019-03-10T19:45:10.236Z,96578.91
2019-03-10T19:47:37.268Z,96581.73
2019-03-10T19:50:04.472Z,96570.53
2019-03-10T19:52:31.145Z,96573.61
2019-03-10T19:54:58.121Z,96581.03
2019-03-10T19:57:24.837Z,96591.00
2019-03-10T19:59:51.708Z,96608.69
2019-03-10T20:02:19.061Z,96617.66
2019-03-10T20:04:45.722Z,96630.66
2019-03-10T20:07:12.581Z,96632.56
2019-03-10T20:09:39.176Z,96636.52
2019-03-10T20:12:06.991Z,96621.91
2019-03-10T20:14:33.742Z,96625.88
2019-03-10T20:17:00.346Z,96618.08
2019-03-10T20:19:27.058Z,96621.41
2019-03-10T20:21:56.030Z,96623.54
2019-03-10T20:24:22.700Z,96643.70
2019-03-10T20:26:49.310Z,96634.03
2019-03-10T20:29:16.191Z,96617.86
2019-03-10T20:31:43.162Z,96621.56
2019-03-10T20:34:10.085Z,96628.52
2019-03-10T20:36:38.097Z,96628.41
2019-03-10T20:39:04.894Z,96623.78
2019-03-10T20:41:31.595Z,96627.13
2019-03-10T20:43:58.331Z,96629.02
2019-03-10T20:46:25.259Z,96624.40
2019-03-10T20:48:51.981Z,96630.67
2019-03-10T20:51:19.198Z,96631.73
2019-03-10T20:53:46.129Z,96633.13
2019-03-10T20:56:13.285Z,96623.11
2019-03-10T20:58:39.984Z,96623.61
2019-03-10T21:01:06.702Z,96633.91
2019-03-10T21:03:33.338Z,96638.23
2019-03-10T21:06:00.000Z,96634.90
2019-03-10T21:08:26.910Z,96634.40
2019-03-10T21:10:54.125Z,96640.11
2019-03-10T21:13:21.086Z,96646.78
2019-03-10T21:15:48.002Z,96653.51
2019-03-10T21:18:14.655Z,96653.02
2019-03-10T21:20:41.275Z,96658.30
2019-03-10T21:23:08.101Z,96655.22
2019-03-10T21:25:34.719Z,96654.18
2019-03-10T21:28:01.345Z,96658.64
2019-03-10T21:30:28.587Z,96657.77
2019-03-10T21:32:55.240Z,96658.17
2019-03-10T21:35:22.161Z,96661.28
2019-03-10T21:37:48.783Z,96664.64
2019-03-10T21:40:15.457Z,96675.63
2019-03-10T21:42:42.321Z,96683.55
2019-03-10T21:45:10.173Z,96662.63
2019-03-10T21:47:38.979Z,96674.22
2019-03-10T21:50:05.419Z,96684.73
2019-03-10T21:52:32.009Z,96694.73
2019-03-10T21:54:58.764Z,96679.58
2019-03-10T21:57:25.624Z,96678.74
2019-03-10T21:59:52.462Z,96684.53
2019-03-10T22:02:19.183Z,96682.98
2019-03-10T22:04:46.105Z,96675.66
2019-03-10T22:07:12.928Z,96686.23
2019-03-10T22:09:40.991Z,96687.73
2019-03-10T22:12:07.642Z,96674.03
2019-03-10T22:14:35.373Z,96681.86
2019-03-10T22:17:02.692Z,96691.63
2019-03-10T22:19:29.290Z,96687.39
2019-03-10T22:21:55.902Z,96694.73
2019-03-10T22:24:22.869Z,96695.86
2019-03-10T22:26:49.469Z,96697.42
2019-03-10T22:29:16.351Z,96703.66
2019-03-10T22:31:46.004Z,96708.66
2019-03-10T22:34:12.642Z,96700.61
2019-03-10T22:36:43.514Z,96704.33
2019-03-10T22:39:11.480Z,96715.62
2019-03-10T22:41:40.442Z,96726.47
2019-03-10T22:44:09.013Z,96750.30
2019-03-10T22:46:37.938Z,96749.31
2019-03-10T22:49:07.719Z,96754.46
2019-03-10T22:51:36.658Z,96743.44
2019-03-10T22:54:05.743Z,96737.66
2019-03-10T22:56:33.863Z,96715.75
2019-03-10T22:59:01.281Z,96722.43
2019-03-10T23:01:27.887Z,96718.18
2019-03-10T23:03:54.569Z,96723.72
2019-03-10T23:06:21.877Z,96722.08
2019-03-10T23:08:48.587Z,96734.81
2019-03-10T23:11:15.905Z,96741.34
2019-03-10T23:13:42.744Z,96746.53
2019-03-10T23:16:09.648Z,96751.00
2019-03-10T23:18:36.372Z,96754.19
2019-03-10T23:21:03.164Z,96759.00
2019-03-10T23:23:30.291Z,96764.23
2019-03-10T23:25:56.912Z,96770.67
2019-03-10T23:28:24.155Z,96770.46
2019-03-10T23:30:50.783Z,96769.08
2019-03-10T23:33:17.944Z,96771.77
2019-03-10T23:35:44.843Z,96767.33
2019-03-10T23:38:12.350Z,96767.56
2019-03-10T23:40:39.027Z,96775.05
2019-03-10T23:43:05.984Z,96776.62
2019-03-10T23:45:32.597Z,96774.65
2019-03-10T23:47:59.184Z,96766.49
2019-03-10T23:50:25.851Z,96757.81
2019-03-10T23:52:52.535Z,96756.70
2019-03-10T23:55:19.436Z,96754.98
2019-03-10T23:57:46.526Z,96762.64
